createdAt,value
2022-10-24T00:00:35.231Z,16.40
2022-10-24T00:03:05.069Z,16.40
2022-10-24T00:05:33.424Z,16.40
2022-10-24T00:08:10.409Z,16.50
2022-10-24T00:10:51.726Z,16.50
2022-10-24T00:13:38.390Z,16.50
2022-10-24T00:16:11.706Z,16.60
2022-10-24T00:18:46.268Z,16.50
2022-10-24T00:21:28.466Z,16.60
2022-10-24T00:23:56.713Z,16.60
2022-10-24T00:26:24.871Z,16.60
2022-10-24T00:28:53.105Z,16.60
2022-10-24T00:31:21.378Z,16.60
2022-10-24T00:33:50.981Z,16.50
2022-10-24T00:36:21.855Z,16.40
2022-10-24T00:38:50.644Z,16.30
2022-10-24T00:41:21.109Z,16.30
2022-10-24T00:43:49.604Z,16.10
2022-10-24T00:46:19.152Z,16.00
2022-10-24T00:48:51.327Z,15.70
2022-10-24T00:51:24.729Z,15.60
2022-10-24T00:53:59.075Z,15.50
2022-10-24T00:56:31.887Z,15.40
2022-10-24T00:59:02.552Z,15.30
2022-10-24T01:01:30.899Z,15.20
2022-10-24T01:04:02.616Z,15.10
2022-10-24T01:06:46.442Z,15.10
2022-10-24T01:09:33.069Z,15.00
2022-10-24T01:12:20.033Z,15.10
2022-10-24T01:14:57.001Z,15.10
2022-10-24T01:17:32.720Z,15.10
2022-10-24T01:20:45.032Z,15.10
2022-10-24T01:23:31.882Z,15.00
2022-10-24T01:26:12.987Z,15.10
2022-10-24T01:28:51.069Z,15.00
2022-10-24T01:31:26.780Z,15.00
2022-10-24T01:34:07.271Z,15.00
2022-10-24T01:36:43.073Z,15.00
2022-10-24T01:39:15.897Z,14.90
2022-10-24T01:41:46.022Z,14.90
2022-10-24T01:44:18.592Z,14.90
2022-10-24T01:46:53.000Z,14.90
2022-10-24T01:49:23.531Z,14.90
2022-10-24T01:51:57.173Z,14.90
2022-10-24T01:54:25.574Z,14.90
2022-10-24T01:56:53.698Z,14.80
2022-10-24T01:59:41.994Z,14.80
2022-10-24T02:02:14.373Z,14.70
2022-10-24T02:04:51.865Z,14.70
2022-10-24T02:07:22.599Z,14.60
2022-10-24T02:09:54.769Z,14.60
2022-10-24T02:12:26.523Z,14.50
2022-10-24T02:14:59.018Z,14.50
2022-10-24T02:20:07.285Z,14.40
2022-10-24T02:22:43.448Z,14.30
2022-10-24T02:25:16.239Z,14.20
2022-10-24T02:27:53.594Z,14.20
2022-10-24T02:30:26.483Z,14.20
2022-10-24T02:32:58.916Z,14.20
2022-10-24T02:35:30.842Z,14.20
2022-10-24T02:38:04.161Z,14.20
2022-10-24T02:40:33.165Z,14.20
2022-10-24T02:43:02.585Z,14.20
2022-10-24T02:45:31.689Z,14.20
2022-10-24T02:48:05.487Z,14.10
2022-10-24T02:50:34.269Z,14.20
2022-10-24T02:53:02.844Z,14.20
2022-10-24T02:55:31.079Z,14.20
2022-10-24T02:57:59.298Z,14.20
2022-10-24T03:00:46.287Z,14.20
2022-10-24T03:03:18.353Z,14.20
2022-10-24T03:06:17.023Z,14.20
2022-10-24T03:09:15.007Z,14.30
2022-10-24T03:11:47.955Z,14.30
2022-10-24T03:21:39.618Z,14.30
2022-10-24T03:24:37.019Z,14.40
2022-10-24T03:27:18.245Z,14.30
2022-10-24T03:30:05.519Z,14.30
2022-10-24T03:32:36.959Z,14.30
2022-10-24T03:38:56.854Z,14.20
2022-10-24T03:41:54.999Z,14.20
2022-10-24T03:45:00.809Z,14.20
2022-10-24T03:47:53.122Z,14.20
2022-10-24T03:50:24.856Z,14.20
2022-10-24T03:53:40.861Z,14.20
2022-10-24T03:56:10.622Z,14.20
2022-10-24T03:58:46.161Z,14.20
2022-10-24T04:01:20.517Z,14.20
2022-10-24T04:04:18.742Z,14.20
2022-10-24T04:07:16.637Z,14.20
2022-10-24T04:09:59.070Z,14.20
2022-10-24T04:16:34.263Z,14.20
2022-10-24T04:19:59.683Z,14.10
2022-10-24T04:22:32.050Z,14.10
2022-10-24T04:25:15.027Z,14.00
2022-10-24T04:31:51.946Z,14.00
2022-10-24T04:34:39.478Z,14.00
2022-10-24T04:37:14.302Z,14.00
2022-10-24T04:40:43.349Z,13.90
2022-10-24T04:43:40.114Z,13.90
2022-10-24T04:46:14.792Z,13.90
2022-10-24T04:48:43.153Z,14.00
2022-10-24T04:51:11.573Z,14.00
2022-10-24T04:53:39.925Z,14.10
2022-10-24T04:56:08.644Z,14.10
2022-10-24T04:58:36.753Z,14.10
2022-10-24T05:01:12.212Z,14.10
2022-10-24T05:03:40.468Z,14.20
2022-10-24T05:06:08.690Z,14.20
2022-10-24T05:08:48.538Z,14.20
2022-10-24T05:11:18.726Z,14.20
2022-10-24T05:13:47.040Z,14.20
2022-10-24T05:16:18.913Z,14.30
2022-10-24T05:18:49.245Z,14.30
2022-10-24T05:21:21.520Z,14.30
2022-10-24T05:23:49.816Z,14.30
2022-10-24T05:26:21.747Z,14.30
2022-10-24T05:28:52.462Z,14.30
2022-10-24T05:31:23.826Z,14.30
2022-10-24T05:33:52.753Z,14.30
2022-10-24T05:36:21.132Z,14.30
2022-10-24T05:38:49.455Z,14.20
2022-10-24T05:41:20.952Z,14.20
2022-10-24T05:43:49.160Z,14.30
2022-10-24T05:46:17.427Z,14.30
2022-10-24T05:51:45.478Z,14.30
2022-10-24T05:54:14.733Z,14.40
2022-10-24T05:56:44.435Z,14.40
2022-10-24T05:59:18.605Z,14.30
2022-10-24T06:01:46.858Z,14.40
2022-10-24T06:04:27.395Z,14.30
2022-10-24T06:07:02.081Z,14.30
2022-10-24T06:09:39.929Z,14.20
2022-10-24T06:12:09.883Z,14.20
2022-10-24T06:14:40.570Z,14.20
2022-10-24T06:17:11.820Z,14.20
2022-10-24T06:19:53.000Z,14.20
2022-10-24T06:22:38.459Z,14.20
2022-10-24T06:25:08.094Z,14.30
2022-10-24T06:27:42.892Z,14.30
2022-10-24T06:30:13.645Z,14.30
2022-10-24T06:32:45.062Z,14.30
2022-10-24T06:35:20.287Z,14.40
2022-10-24T06:37:57.429Z,14.40
2022-10-24T06:40:25.731Z,14.50
2022-10-24T06:42:53.943Z,14.50
2022-10-24T06:45:28.480Z,14.50
2022-10-24T06:48:01.930Z,14.50
2022-10-24T06:50:39.768Z,14.50
2022-10-24T06:53:28.385Z,14.50
2022-10-24T06:56:02.667Z,14.50
2022-10-24T06:58:35.755Z,14.50
2022-10-24T07:01:09.774Z,14.50
2022-10-24T07:03:38.397Z,14.50
2022-10-24T07:06:37.688Z,14.60
2022-10-24T07:09:10.218Z,14.60
2022-10-24T07:11:42.735Z,14.60
2022-10-24T07:14:22.092Z,14.60
2022-10-24T07:17:02.814Z,14.70
2022-10-24T07:19:34.009Z,14.80
2022-10-24T07:22:10.609Z,14.80
2022-10-24T07:24:55.548Z,14.90
2022-10-24T07:27:38.923Z,14.90
2022-10-24T07:30:08.546Z,14.90
2022-10-24T07:32:41.388Z,14.90
2022-10-24T07:35:26.515Z,15.00
2022-10-24T07:38:00.988Z,15.00
2022-10-24T07:40:34.794Z,15.10
2022-10-24T07:43:32.254Z,15.00
2022-10-24T07:46:35.613Z,15.10
2022-10-24T07:49:10.237Z,15.20
2022-10-24T07:51:53.297Z,15.10
2022-10-24T07:54:36.408Z,15.20
2022-10-24T07:57:16.006Z,15.30
2022-10-24T07:59:46.313Z,15.30
2022-10-24T08:02:16.787Z,15.30
2022-10-24T08:04:47.781Z,15.30
2022-10-24T08:07:16.294Z,15.30
2022-10-24T08:09:54.653Z,15.40
2022-10-24T08:12:23.018Z,15.40
2022-10-24T08:14:52.238Z,15.40
2022-10-24T08:17:28.843Z,15.50
2022-10-24T08:20:00.152Z,15.50
2022-10-24T08:22:30.006Z,15.50
2022-10-24T08:25:17.411Z,15.60
2022-10-24T08:27:46.327Z,15.80
2022-10-24T08:30:20.354Z,15.80
2022-10-24T08:32:59.084Z,15.80
2022-10-24T08:35:41.932Z,15.90
2022-10-24T08:38:18.089Z,15.90
2022-10-24T08:40:51.102Z,15.90
2022-10-24T08:43:26.035Z,16.00
2022-10-24T08:46:06.155Z,15.90
2022-10-24T08:48:42.377Z,15.90
2022-10-24T08:51:28.027Z,15.80
2022-10-24T08:54:01.358Z,15.80
2022-10-24T08:56:45.088Z,15.80
2022-10-24T08:59:14.517Z,15.70
2022-10-24T09:01:47.084Z,15.70
2022-10-24T09:04:18.378Z,15.60
2022-10-24T09:06:48.038Z,15.60
2022-10-24T09:09:22.286Z,15.60
2022-10-24T09:11:54.880Z,15.60
2022-10-24T09:14:25.147Z,15.50
2022-10-24T09:16:57.689Z,15.50
2022-10-24T09:19:28.948Z,15.40
2022-10-24T09:21:59.035Z,15.30
2022-10-24T09:24:36.545Z,15.30
2022-10-24T09:27:12.047Z,15.20
2022-10-24T09:29:43.484Z,15.20
2022-10-24T09:32:18.443Z,15.20
2022-10-24T09:34:49.589Z,15.20
2022-10-24T09:37:35.112Z,15.20
2022-10-24T09:40:18.354Z,15.20
2022-10-24T09:43:00.555Z,15.10
2022-10-24T09:45:42.415Z,15.10
2022-10-24T09:48:26.063Z,15.10
2022-10-24T09:50:58.494Z,15.10
2022-10-24T09:53:29.718Z,15.10
2022-10-24T09:56:00.378Z,15.10
2022-10-24T09:58:33.764Z,15.20
2022-10-24T10:01:06.941Z,15.10
2022-10-24T10:03:43.006Z,15.00
2022-10-24T10:06:18.357Z,14.90
2022-10-24T10:08:52.078Z,14.80
2022-10-24T10:11:27.593Z,14.70
2022-10-24T10:13:59.909Z,14.50
2022-10-24T10:16:31.776Z,14.40
2022-10-24T10:19:05.469Z,14.30
2022-10-24T10:21:53.075Z,14.30
2022-10-24T10:24:27.220Z,14.30
2022-10-24T10:26:58.619Z,14.20
2022-10-24T10:29:28.153Z,14.30
2022-10-24T10:32:08.876Z,14.40
2022-10-24T10:34:41.492Z,14.50
2022-10-24T10:37:25.497Z,14.60
2022-10-24T10:40:19.517Z,14.60
2022-10-24T10:42:59.922Z,14.70
2022-10-24T10:45:38.586Z,14.80
2022-10-24T10:48:26.046Z,14.80
2022-10-24T10:51:02.270Z,14.90
2022-10-24T10:53:53.930Z,15.00
2022-10-24T10:56:33.040Z,15.10
2022-10-24T10:59:29.663Z,15.20
2022-10-24T11:02:15.425Z,15.30
2022-10-24T11:04:48.800Z,15.30
2022-10-24T11:07:29.940Z,15.40
2022-10-24T11:10:00.013Z,15.30
2022-10-24T11:12:35.455Z,15.40
2022-10-24T11:15:17.016Z,15.40
2022-10-24T11:18:04.997Z,15.50
2022-10-24T11:20:50.668Z,15.50
2022-10-24T11:23:30.759Z,15.60
2022-10-24T11:26:04.165Z,15.60
2022-10-24T11:28:39.656Z,15.70
2022-10-24T11:31:14.747Z,15.70
2022-10-24T11:34:02.237Z,15.70
2022-10-24T11:36:39.813Z,15.80
2022-10-24T11:39:22.108Z,15.70
2022-10-24T11:42:07.049Z,15.70
2022-10-24T11:44:49.427Z,15.70
2022-10-24T11:47:54.135Z,15.80
2022-10-24T11:50:37.527Z,15.70
2022-10-24T11:53:21.180Z,15.60
2022-10-24T11:55:59.965Z,15.50
2022-10-24T11:58:33.487Z,15.50
2022-10-24T12:01:20.166Z,15.50
2022-10-24T12:04:27.371Z,15.60
2022-10-24T12:07:29.429Z,15.60
2022-10-24T12:10:22.150Z,15.50
2022-10-24T12:13:15.918Z,15.50
2022-10-24T12:15:54.761Z,15.50
2022-10-24T12:18:30.017Z,15.50
2022-10-24T12:21:06.968Z,15.50
2022-10-24T12:23:40.111Z,15.50
2022-10-24T12:26:22.247Z,15.50
2022-10-24T12:28:56.810Z,15.40
2022-10-24T12:31:34.020Z,15.50
2022-10-24T12:34:49.347Z,15.50
2022-10-24T12:37:37.550Z,15.60
2022-10-24T12:40:51.640Z,15.60
2022-10-24T12:43:32.977Z,15.60
2022-10-24T12:46:09.472Z,15.60
2022-10-24T12:48:43.412Z,15.60
2022-10-24T12:51:30.031Z,15.60
2022-10-24T12:54:15.835Z,15.60
2022-10-24T12:57:22.848Z,15.60
2022-10-24T12:59:52.387Z,15.70
2022-10-24T13:02:50.189Z,15.70
2022-10-24T13:05:58.253Z,15.70
2022-10-24T13:08:46.271Z,15.80
2022-10-24T13:11:31.676Z,15.80
2022-10-24T13:14:33.092Z,15.80
2022-10-24T13:17:15.056Z,15.90
2022-10-24T13:19:46.691Z,15.90
2022-10-24T13:22:30.406Z,15.90
2022-10-24T13:25:03.939Z,16.00
2022-10-24T13:27:33.433Z,15.90
2022-10-24T13:30:28.041Z,15.90
2022-10-24T13:33:41.442Z,15.80
2022-10-24T13:36:16.650Z,15.80
2022-10-24T13:38:50.400Z,15.80
2022-10-24T13:41:28.461Z,15.80
2022-10-24T13:44:01.610Z,15.80
2022-10-24T13:46:37.856Z,15.90
2022-10-24T13:49:08.050Z,15.90
2022-10-24T13:51:45.491Z,15.90
2022-10-24T13:54:27.824Z,15.90
2022-10-24T13:56:58.502Z,15.90
2022-10-24T13:59:33.908Z,16.00
2022-10-24T14:02:09.321Z,16.00
2022-10-24T14:04:39.747Z,16.00
2022-10-24T14:07:13.999Z,16.00
2022-10-24T14:09:51.545Z,16.00
2022-10-24T14:12:24.804Z,16.00
2022-10-24T14:14:54.191Z,15.90
2022-10-24T14:17:29.627Z,15.90
2022-10-24T14:20:00.408Z,15.90
2022-10-24T14:22:30.792Z,15.90
2022-10-24T14:25:04.069Z,15.90
2022-10-24T14:27:32.481Z,15.80
2022-10-24T14:30:02.545Z,15.80
2022-10-24T14:32:35.059Z,15.70
2022-10-24T14:35:06.381Z,15.70
2022-10-24T14:37:41.281Z,15.70
2022-10-24T14:40:18.314Z,15.70
2022-10-24T14:42:47.630Z,15.70
2022-10-24T14:45:39.317Z,15.60
2022-10-24T14:48:48.040Z,15.50
2022-10-24T14:51:38.574Z,15.40
2022-10-24T14:54:20.722Z,15.30
2022-10-24T14:56:49.761Z,15.30
2022-10-24T14:59:29.606Z,15.20
2022-10-24T15:02:01.165Z,15.20
2022-10-24T15:04:32.727Z,15.30
2022-10-24T15:07:20.977Z,15.20
2022-10-24T15:09:57.788Z,15.20
2022-10-24T15:12:34.427Z,15.30
2022-10-24T15:16:04.871Z,15.20
2022-10-24T15:19:20.204Z,15.30
2022-10-24T15:21:55.213Z,15.30
2022-10-24T15:24:28.191Z,15.30
2022-10-24T15:27:44.182Z,15.30
2022-10-24T15:30:39.646Z,15.20
2022-10-24T15:33:49.920Z,15.20
2022-10-24T15:41:11.219Z,15.20
2022-10-24T15:44:45.300Z,15.20
2022-10-24T15:48:56.301Z,15.20
2022-10-24T15:51:50.504Z,15.10
2022-10-24T15:55:46.388Z,15.10
2022-10-24T15:59:08.024Z,15.10
2022-10-24T16:01:40.531Z,15.00
2022-10-24T16:04:20.255Z,15.00
2022-10-24T16:09:59.255Z,14.90
2022-10-24T16:12:34.106Z,14.90
2022-10-24T16:15:37.765Z,14.90
2022-10-24T16:19:19.035Z,14.90
2022-10-24T16:21:50.441Z,14.80
2022-10-24T16:24:25.851Z,14.80
2022-10-24T16:27:01.640Z,14.70
2022-10-24T16:29:36.257Z,14.70
2022-10-24T16:32:57.163Z,14.70
2022-10-24T16:36:02.291Z,14.70
2022-10-24T16:42:44.039Z,14.70
2022-10-24T16:45:13.526Z,14.70
2022-10-24T16:48:13.357Z,14.60
2022-10-24T16:51:27.789Z,14.60
2022-10-24T16:54:02.258Z,14.60
2022-10-24T16:56:43.740Z,14.60
2022-10-24T16:59:29.217Z,14.50
2022-10-24T17:02:31.550Z,14.60
2022-10-24T17:05:33.109Z,14.50
2022-10-24T17:12:51.169Z,14.50
2022-10-24T17:15:23.930Z,14.50
2022-10-24T17:18:29.103Z,14.50
2022-10-24T17:21:27.973Z,14.60
2022-10-24T17:24:01.012Z,14.50
2022-10-24T17:26:32.975Z,14.60
2022-10-24T17:29:27.045Z,14.60
2022-10-24T17:32:02.274Z,14.50
2022-10-24T17:34:41.379Z,14.50
2022-10-24T17:37:23.796Z,14.50
2022-10-24T17:40:42.460Z,14.50
2022-10-24T17:43:34.662Z,14.60
2022-10-24T17:46:32.480Z,14.50
2022-10-24T17:49:21.598Z,14.50
2022-10-24T17:56:05.077Z,14.50
2022-10-24T18:02:54.950Z,14.50
2022-10-24T18:05:44.604Z,14.40
2022-10-24T18:08:50.983Z,14.40
2022-10-24T18:12:32.817Z,14.40
2022-10-24T18:16:02.434Z,14.40
2022-10-24T18:19:34.721Z,14.40
2022-10-24T18:22:55.210Z,14.30
2022-10-24T18:25:52.484Z,14.20
2022-10-24T18:28:29.269Z,14.20
2022-10-24T18:31:37.442Z,14.20
2022-10-24T18:34:46.133Z,14.20
2022-10-24T18:38:41.749Z,14.20
2022-10-24T18:42:42.409Z,14.10
2022-10-24T19:00:55.381Z,14.10
2022-10-24T19:03:41.306Z,14.10
2022-10-24T19:06:20.859Z,14.10
2022-10-24T19:09:34.264Z,14.10
2022-10-24T19:12:06.991Z,14.00
2022-10-24T19:15:03.397Z,14.10
2022-10-24T19:18:20.772Z,14.00
2022-10-24T19:20:48.999Z,14.00
2022-10-24T19:23:20.434Z,14.00
2022-10-24T19:26:01.104Z,14.00
2022-10-24T19:29:19.659Z,13.90
2022-10-24T19:32:12.550Z,13.90
2022-10-24T19:35:28.644Z,13.90
2022-10-24T19:38:28.356Z,13.90
2022-10-24T19:41:19.463Z,13.90
2022-10-24T19:44:18.913Z,13.90
2022-10-24T19:46:49.092Z,13.90
2022-10-24T19:50:10.785Z,13.90
2022-10-24T19:52:50.868Z,13.90
2022-10-24T19:55:46.501Z,13.90
2022-10-24T20:00:12.661Z,13.90
2022-10-24T20:01:53.962Z,13.90
2022-10-24T20:04:22.210Z,13.90
2022-10-24T20:07:28.658Z,13.90
2022-10-24T20:10:00.452Z,13.90
2022-10-24T20:12:37.027Z,13.90
2022-10-24T20:15:15.761Z,13.90
2022-10-24T20:17:47.278Z,13.90
2022-10-24T20:20:17.842Z,13.90
2022-10-24T20:29:15.124Z,13.90
2022-10-24T20:32:16.398Z,13.90
2022-10-24T20:35:23.330Z,13.90
2022-10-24T20:38:19.947Z,13.90
2022-10-24T20:41:54.057Z,13.90
2022-10-24T20:50:04.906Z,13.90
2022-10-24T20:53:41.649Z,13.80
2022-10-24T21:00:05.535Z,13.80
2022-10-24T21:02:53.752Z,13.80
2022-10-24T21:05:46.500Z,13.80
2022-10-24T21:08:42.580Z,13.80
2022-10-24T21:15:43.265Z,13.80
2022-10-24T21:18:37.740Z,13.80
2022-10-24T21:21:19.517Z,13.80
2022-10-24T21:28:00.418Z,13.90
2022-10-24T21:31:21.234Z,13.90
2022-10-24T21:34:39.028Z,13.90
2022-10-24T21:37:32.550Z,13.90
2022-10-24T21:44:14.511Z,14.00
2022-10-24T21:51:26.999Z,14.00
2022-10-24T21:54:29.947Z,13.90
2022-10-24T21:57:36.758Z,13.90
2022-10-24T22:00:08.573Z,13.90
2022-10-24T22:03:03.542Z,14.00
2022-10-24T22:05:59.465Z,13.90
2022-10-24T22:08:59.419Z,13.90
2022-10-24T22:11:43.629Z,13.90
2022-10-24T22:15:20.704Z,13.90
2022-10-24T22:18:09.541Z,13.90
2022-10-24T22:21:02.429Z,14.00
2022-10-24T22:27:16.148Z,13.90
2022-10-24T22:29:51.759Z,13.90
2022-10-24T22:32:51.645Z,13.90
2022-10-24T22:35:51.051Z,14.00
2022-10-24T22:41:59.475Z,13.90
2022-10-24T22:45:02.258Z,13.90
2022-10-24T22:48:23.172Z,13.90
2022-10-24T22:51:32.134Z,13.90
2022-10-24T22:54:52.806Z,13.90
2022-10-24T22:57:48.947Z,13.90
2022-10-24T23:00:26.943Z,13.80
2022-10-24T23:03:02.610Z,13.80
2022-10-24T23:05:39.623Z,13.80
2022-10-24T23:08:16.984Z,13.80
2022-10-24T23:10:54.069Z,13.80
2022-10-24T23:13:30.436Z,13.80
2022-10-24T23:16:33.165Z,13.80
2022-10-24T23:19:33.581Z,13.80
2022-10-24T23:22:22.788Z,13.70
2022-10-24T23:25:28.363Z,13.70
2022-10-24T23:28:13.125Z,13.70
2022-10-24T23:38:39.010Z,13.70
2022-10-24T23:41:42.869Z,13.60
2022-10-24T23:44:17.016Z,13.60
2022-10-24T23:47:18.776Z,13.60
2022-10-24T23:53:20.826Z,13.50
2022-10-24T23:55:56.934Z,13.40
2022-10-24T23:58:32.184Z,13.40
